createdAt,value
2023-01-21T00:02:15.080Z,6.52
2023-01-21T00:04:41.616Z,6.57
2023-01-21T00:07:08.169Z,6.57
2023-01-21T00:09:35.115Z,6.65
2023-01-21T00:12:02.919Z,6.70
2023-01-21T00:14:30.126Z,6.46
2023-01-21T00:16:58.084Z,6.52
2023-01-21T00:19:25.679Z,6.43
2023-01-21T00:21:52.867Z,6.67
2023-01-21T00:24:19.343Z,6.96
2023-01-21T00:26:46.047Z,7.19
2023-01-21T00:29:12.550Z,7.01
2023-01-21T00:31:39.299Z,6.92
2023-01-21T00:34:05.917Z,7.08
2023-01-21T00:36:32.741Z,7.07
2023-01-21T00:38:59.628Z,6.98
2023-01-21T00:41:26.278Z,7.30
2023-01-21T00:43:53.647Z,7.56
2023-01-21T00:46:20.312Z,7.65
2023-01-21T00:48:46.918Z,7.80
2023-01-21T00:51:13.658Z,7.73
2023-01-21T00:53:43.871Z,7.76
2023-01-21T00:56:12.920Z,7.80
2023-01-21T00:58:40.305Z,7.88
2023-01-21T01:01:09.854Z,8.02
2023-01-21T01:03:39.557Z,8.12
2023-01-21T01:06:26.370Z,8.29
2023-01-21T01:08:54.176Z,8.38
2023-01-21T01:11:21.532Z,8.47
2023-01-21T01:13:48.092Z,8.58
2023-01-21T01:16:16.487Z,8.64
2023-01-21T01:18:43.897Z,8.70
2023-01-21T01:21:13.294Z,8.75
2023-01-21T01:23:40.580Z,8.80
2023-01-21T01:26:10.073Z,8.85
2023-01-21T01:28:36.733Z,8.91
2023-01-21T01:31:08.783Z,8.88
2023-01-21T01:33:36.232Z,8.88
2023-01-21T01:36:13.539Z,8.83
2023-01-21T01:38:40.215Z,8.76
2023-01-21T01:41:07.030Z,8.75
2023-01-21T01:43:57.979Z,8.86
2023-01-21T01:46:30.029Z,8.86
2023-01-21T01:49:10.696Z,8.96
2023-01-21T01:51:48.567Z,9.08
2023-01-21T01:54:20.686Z,9.03
2023-01-21T01:56:53.039Z,9.02
2023-01-21T01:59:19.990Z,9.02
2023-01-21T02:01:46.660Z,8.97
2023-01-21T02:04:20.400Z,9.01
2023-01-21T02:06:48.748Z,8.94
2023-01-21T02:09:15.277Z,8.98
2023-01-21T02:11:42.207Z,8.65
2023-01-21T02:14:08.914Z,8.60
2023-01-21T02:16:51.863Z,8.78
2023-01-21T02:19:43.779Z,8.84
2023-01-21T02:22:34.870Z,9.02
2023-01-21T02:25:27.048Z,8.90
2023-01-21T02:28:08.533Z,8.85
2023-01-21T02:31:08.926Z,8.84
2023-01-21T02:33:55.673Z,8.89
2023-01-21T02:36:41.804Z,8.68
2023-01-21T02:39:46.346Z,8.69
2023-01-21T02:42:23.440Z,8.80
2023-01-21T02:45:15.645Z,8.44
2023-01-21T02:48:04.549Z,8.42
2023-01-21T02:50:36.127Z,8.31
2023-01-21T02:53:04.626Z,8.50
2023-01-21T02:55:36.124Z,8.32
2023-01-21T02:58:15.885Z,8.23
2023-01-21T03:01:11.146Z,8.30
2023-01-21T03:04:00.713Z,8.41
2023-01-21T03:06:42.365Z,8.62
2023-01-21T03:09:25.451Z,8.66
2023-01-21T03:12:02.345Z,8.61
2023-01-21T03:15:00.130Z,8.93
2023-01-21T03:17:37.775Z,8.85
2023-01-21T03:20:12.655Z,9.06
2023-01-21T03:22:40.255Z,9.32
2023-01-21T03:25:09.474Z,9.55
2023-01-21T03:27:40.299Z,9.71
2023-01-21T03:30:14.036Z,9.64
2023-01-21T03:32:44.420Z,9.62
2023-01-21T03:35:17.015Z,9.74
2023-01-21T03:37:48.713Z,9.77
2023-01-21T03:40:30.035Z,9.84
2023-01-21T03:42:57.791Z,9.69
2023-01-21T03:46:19.160Z,9.77
2023-01-21T03:49:04.604Z,9.59
2023-01-21T03:51:36.090Z,9.22
2023-01-21T03:54:02.652Z,9.24
2023-01-21T03:56:29.497Z,9.44
2023-01-21T03:58:56.763Z,9.76
2023-01-21T04:01:23.314Z,9.69
2023-01-21T04:03:49.826Z,9.67
2023-01-21T04:06:19.574Z,9.68
2023-01-21T04:08:46.396Z,9.84
2023-01-21T04:11:13.181Z,9.85
2023-01-21T04:13:39.699Z,9.52
2023-01-21T04:16:06.793Z,9.68
2023-01-21T04:18:33.329Z,9.52
2023-01-21T04:21:00.036Z,9.70
2023-01-21T04:23:26.741Z,9.45
2023-01-21T04:25:53.763Z,9.49
2023-01-21T04:28:20.515Z,9.41
2023-01-21T04:30:47.878Z,9.44
2023-01-21T04:33:15.213Z,9.51
2023-01-21T04:35:42.161Z,9.55
2023-01-21T04:38:08.787Z,9.54
2023-01-21T04:40:35.310Z,9.52
2023-01-21T04:43:02.230Z,9.56
2023-01-21T04:45:28.873Z,9.62
2023-01-21T04:47:55.746Z,9.35
2023-01-21T04:50:22.663Z,9.26
2023-01-21T04:52:49.178Z,9.46
2023-01-21T04:55:15.782Z,9.24
2023-01-21T04:57:42.524Z,9.05
2023-01-21T05:00:09.867Z,9.57
2023-01-21T05:02:36.504Z,9.77
2023-01-21T05:05:03.022Z,9.79
2023-01-21T05:07:29.559Z,9.78
2023-01-21T05:09:56.137Z,9.82
2023-01-21T05:12:22.846Z,9.69
2023-01-21T05:14:52.964Z,9.63
2023-01-21T05:17:20.936Z,9.75
2023-01-21T05:19:47.425Z,9.93
2023-01-21T05:22:13.943Z,9.98
2023-01-21T05:24:40.534Z,9.89
2023-01-21T05:27:07.370Z,9.69
2023-01-21T05:29:34.265Z,9.79
2023-01-21T05:32:00.836Z,9.83
2023-01-21T05:34:27.773Z,9.64
2023-01-21T05:36:54.316Z,9.28
2023-01-21T05:39:21.378Z,9.50
2023-01-21T05:41:48.306Z,9.74
2023-01-21T05:44:17.449Z,9.83
2023-01-21T05:46:44.585Z,9.62
2023-01-21T05:49:11.740Z,9.76
2023-01-21T05:51:38.886Z,9.43
2023-01-21T05:54:05.452Z,9.25
2023-01-21T05:56:32.053Z,9.30
2023-01-21T05:58:58.773Z,9.29
2023-01-21T06:01:25.445Z,9.21
2023-01-21T06:03:51.935Z,9.34
2023-01-21T06:06:18.994Z,9.28
2023-01-21T06:08:45.601Z,8.97
2023-01-21T06:11:12.203Z,9.14
2023-01-21T06:13:38.719Z,9.29
2023-01-21T06:16:05.466Z,9.25
2023-01-21T06:18:32.007Z,8.82
2023-01-21T06:21:00.960Z,8.59
2023-01-21T06:23:27.683Z,8.53
2023-01-21T06:25:59.711Z,8.73
2023-01-21T06:28:27.335Z,8.66
2023-01-21T06:30:53.925Z,8.12
2023-01-21T06:33:21.341Z,7.93
2023-01-21T06:35:47.915Z,7.59
2023-01-21T06:38:14.837Z,7.27
2023-01-21T06:40:41.338Z,7.09
2023-01-21T06:43:07.935Z,6.76
2023-01-21T06:45:34.911Z,6.94
2023-01-21T06:48:01.493Z,7.19
2023-01-21T06:50:28.289Z,7.43
2023-01-21T06:52:54.797Z,7.69
2023-01-21T06:55:21.566Z,8.09
2023-01-21T06:57:48.157Z,7.94
2023-01-21T07:00:15.401Z,8.13
2023-01-21T07:02:42.093Z,7.68
2023-01-21T07:05:08.746Z,8.07
2023-01-21T07:07:35.545Z,8.03
2023-01-21T07:10:02.424Z,8.16
2023-01-21T07:12:29.456Z,8.02
2023-01-21T07:14:56.366Z,8.09
2023-01-21T07:17:23.466Z,8.31
2023-01-21T07:19:50.255Z,8.55
2023-01-21T07:22:19.959Z,8.33
2023-01-21T07:24:46.624Z,8.31
2023-01-21T07:27:14.001Z,8.57
2023-01-21T07:29:40.623Z,8.78
2023-01-21T07:32:07.504Z,9.07
2023-01-21T07:34:34.059Z,9.08
2023-01-21T07:37:03.043Z,9.41
2023-01-21T07:39:30.134Z,9.62
2023-01-21T07:41:56.638Z,9.67
2023-01-21T07:44:26.363Z,9.80
2023-01-21T07:46:52.991Z,9.67
2023-01-21T07:49:23.165Z,9.89
2023-01-21T07:51:49.919Z,9.92
2023-01-21T07:54:16.461Z,9.94
2023-01-21T07:56:44.004Z,9.90
2023-01-21T07:59:11.443Z,9.74
2023-01-21T08:01:38.496Z,9.24
2023-01-21T08:04:06.976Z,9.54
2023-01-21T08:06:33.500Z,9.50
2023-01-21T08:09:00.004Z,9.07
2023-01-21T08:11:26.552Z,9.30
2023-01-21T08:13:54.385Z,9.13
2023-01-21T08:16:21.876Z,9.09
2023-01-21T08:18:48.786Z,9.33
2023-01-21T08:21:15.714Z,9.27
2023-01-21T08:23:42.635Z,9.43
2023-01-21T08:26:09.430Z,9.29
2023-01-21T08:28:36.301Z,9.28
2023-01-21T08:31:08.629Z,9.56
2023-01-21T08:33:35.183Z,9.54
2023-01-21T08:36:03.839Z,9.61
2023-01-21T08:38:30.591Z,9.61
2023-01-21T08:40:58.233Z,9.73
2023-01-21T08:43:26.057Z,9.56
2023-01-21T08:45:56.240Z,9.51
2023-01-21T08:48:23.390Z,9.87
2023-01-21T08:50:50.842Z,9.95
2023-01-21T08:53:17.476Z,10.02
2023-01-21T08:55:44.369Z,10.05
2023-01-21T08:58:11.298Z,9.66
2023-01-21T09:00:37.861Z,9.84
2023-01-21T09:03:04.611Z,10.10
2023-01-21T09:05:31.154Z,10.25
2023-01-21T09:07:58.384Z,10.47
2023-01-21T09:10:43.695Z,10.59
2023-01-21T09:13:13.184Z,10.55
2023-01-21T09:15:42.216Z,10.54
2023-01-21T09:18:08.845Z,10.41
2023-01-21T09:20:36.060Z,10.45
2023-01-21T09:23:02.829Z,10.11
2023-01-21T09:25:29.538Z,10.25
2023-01-21T09:27:56.055Z,10.02
2023-01-21T09:30:24.126Z,9.90
2023-01-21T09:32:51.082Z,10.05
2023-01-21T09:35:18.276Z,9.81
2023-01-21T09:37:46.075Z,9.54
2023-01-21T09:40:16.780Z,9.36
2023-01-21T09:42:43.617Z,9.23
2023-01-21T09:45:15.285Z,9.59
2023-01-21T09:47:46.363Z,9.61
2023-01-21T09:50:16.696Z,9.81
2023-01-21T09:52:44.450Z,9.54
2023-01-21T09:55:28.350Z,9.07
2023-01-21T09:58:00.853Z,8.71
2023-01-21T10:00:33.933Z,8.96
2023-01-21T10:03:16.315Z,9.07
2023-01-21T10:05:56.288Z,9.37
2023-01-21T10:08:31.834Z,9.16
2023-01-21T10:11:14.950Z,8.78
2023-01-21T10:14:09.302Z,9.25
2023-01-21T10:16:54.933Z,9.38
2023-01-21T10:19:28.307Z,9.64
2023-01-21T10:22:00.277Z,9.32
2023-01-21T10:24:38.653Z,9.39
2023-01-21T10:27:05.734Z,9.58
2023-01-21T10:29:38.081Z,9.27
2023-01-21T10:32:08.398Z,9.01
2023-01-21T10:34:40.746Z,9.08
2023-01-21T10:37:21.549Z,9.15
2023-01-21T10:40:07.260Z,9.45
2023-01-21T10:42:49.752Z,9.23
2023-01-21T10:45:31.274Z,9.16
2023-01-21T10:48:33.909Z,9.05
2023-01-21T10:51:32.325Z,8.88
2023-01-21T10:54:29.071Z,9.58
2023-01-21T10:56:58.486Z,9.24
2023-01-21T10:59:33.016Z,9.68
2023-01-21T11:02:06.445Z,10.07
2023-01-21T11:04:34.292Z,10.03
2023-01-21T11:07:03.485Z,9.53
2023-01-21T11:09:34.815Z,9.62
2023-01-21T11:12:01.862Z,9.96
2023-01-21T11:14:28.987Z,9.81
2023-01-21T11:16:56.100Z,9.74
2023-01-21T11:19:25.013Z,9.45
2023-01-21T11:22:01.812Z,9.58
2023-01-21T11:24:29.784Z,9.41
2023-01-21T11:27:00.860Z,9.37
2023-01-21T11:29:39.110Z,9.15
2023-01-21T11:32:29.329Z,8.63
2023-01-21T11:35:16.165Z,8.58
2023-01-21T11:38:01.442Z,8.39
2023-01-21T11:40:28.721Z,8.63
2023-01-21T11:43:32.881Z,8.58
2023-01-21T11:46:01.272Z,8.82
2023-01-21T11:48:27.786Z,8.99
2023-01-21T11:51:07.102Z,9.35
2023-01-21T11:53:33.699Z,9.39
2023-01-21T11:56:03.189Z,9.37
2023-01-21T11:58:39.861Z,9.33
2023-01-21T12:01:10.886Z,9.59
2023-01-21T12:04:00.935Z,9.53
2023-01-21T12:06:32.506Z,9.91
2023-01-21T12:09:05.151Z,10.19
2023-01-21T12:11:34.846Z,10.11
2023-01-21T12:14:27.086Z,10.30
2023-01-21T12:17:09.082Z,10.53
2023-01-21T12:19:54.196Z,10.26
2023-01-21T12:22:49.126Z,10.03
2023-01-21T12:25:27.410Z,9.95
2023-01-21T12:28:31.545Z,10.20
2023-01-21T12:31:13.916Z,9.92
2023-01-21T12:33:53.525Z,9.84
2023-01-21T12:36:24.984Z,10.09
2023-01-21T12:39:11.566Z,9.90
2023-01-21T12:41:41.616Z,9.87
2023-01-21T12:44:14.177Z,9.55
2023-01-21T12:46:45.227Z,9.92
2023-01-21T12:49:25.331Z,9.89
2023-01-21T12:51:57.540Z,9.82
2023-01-21T12:54:40.532Z,9.53
2023-01-21T12:57:27.634Z,9.44
2023-01-21T13:00:02.524Z,9.63
2023-01-21T13:02:40.724Z,9.71
2023-01-21T13:05:16.975Z,9.91
2023-01-21T13:07:57.254Z,9.91
2023-01-21T13:10:38.961Z,9.95
2023-01-21T13:13:29.653Z,9.64
2023-01-21T13:16:05.878Z,9.75
2023-01-21T13:18:39.169Z,9.95
2023-01-21T13:21:34.896Z,10.38
2023-01-21T13:24:17.595Z,10.31
2023-01-21T13:27:12.113Z,10.75
2023-01-21T13:29:47.984Z,10.73
2023-01-21T13:32:34.756Z,10.68
2023-01-21T13:35:07.134Z,10.72
2023-01-21T13:37:47.042Z,10.99
2023-01-21T13:40:39.355Z,11.17
2023-01-21T13:43:33.509Z,10.85
2023-01-21T13:46:29.071Z,10.83
2023-01-21T13:49:00.965Z,10.65
2023-01-21T13:52:04.932Z,10.40
2023-01-21T13:54:53.859Z,10.77
2023-01-21T13:58:02.420Z,10.97
2023-01-21T14:00:54.826Z,10.90
2023-01-21T14:03:30.372Z,10.79
2023-01-21T14:06:06.217Z,10.89
2023-01-21T14:08:45.565Z,10.59
2023-01-21T14:11:20.402Z,10.53
2023-01-21T14:14:05.860Z,10.35
2023-01-21T14:16:39.815Z,10.45
2023-01-21T14:19:54.294Z,10.29
2023-01-21T14:22:43.409Z,10.33
2023-01-21T14:25:39.108Z,9.63
2023-01-21T14:28:20.943Z,9.79
2023-01-21T14:31:10.549Z,9.53
2023-01-21T14:33:47.002Z,9.73
2023-01-21T14:36:22.717Z,9.70
2023-01-21T14:39:07.269Z,9.77
2023-01-21T14:41:58.669Z,9.77
2023-01-21T14:44:39.521Z,9.72
2023-01-21T14:47:12.940Z,9.30
2023-01-21T14:49:45.368Z,9.34
2023-01-21T14:52:14.901Z,9.27
2023-01-21T14:54:43.738Z,9.13
2023-01-21T14:57:41.122Z,9.22
2023-01-21T15:00:23.888Z,9.02
2023-01-21T15:03:19.258Z,8.94
2023-01-21T15:05:51.571Z,8.98
2023-01-21T15:08:25.052Z,8.95
2023-01-21T15:10:58.299Z,9.06
2023-01-21T15:13:33.907Z,9.06
2023-01-21T15:16:06.450Z,8.94
2023-01-21T15:18:45.374Z,8.89
2023-01-21T15:21:35.721Z,8.78
2023-01-21T15:24:32.998Z,8.64
2023-01-21T15:27:21.046Z,8.55
2023-01-21T15:29:53.565Z,8.28
2023-01-21T15:32:38.475Z,8.39
2023-01-21T15:35:22.194Z,8.46
2023-01-21T15:37:52.193Z,8.22
2023-01-21T15:40:26.078Z,8.42
2023-01-21T15:43:25.834Z,8.08
2023-01-21T15:46:13.059Z,7.85
2023-01-21T15:49:14.532Z,8.01
2023-01-21T15:51:52.830Z,7.85
2023-01-21T15:54:37.617Z,7.89
2023-01-21T15:57:22.836Z,7.94
2023-01-21T16:00:19.283Z,7.83
2023-01-21T16:02:53.968Z,8.15
2023-01-21T16:05:29.849Z,7.97
2023-01-21T16:08:10.736Z,7.82
2023-01-21T16:10:51.259Z,7.93
2023-01-21T16:13:40.733Z,7.65
2023-01-21T16:16:46.609Z,7.80
2023-01-21T16:19:27.459Z,7.83
2023-01-21T16:21:58.572Z,7.75
2023-01-21T16:24:28.387Z,7.38
2023-01-21T16:26:55.219Z,7.57
2023-01-21T16:29:21.901Z,7.57
2023-01-21T16:31:51.475Z,7.64
2023-01-21T16:34:30.631Z,7.49
2023-01-21T16:36:57.584Z,7.46
2023-01-21T16:39:24.609Z,7.45
2023-01-21T16:42:01.966Z,7.78
2023-01-21T16:44:29.064Z,7.45
2023-01-21T16:46:56.010Z,7.42
2023-01-21T16:49:22.614Z,7.61
2023-01-21T16:51:56.630Z,7.65
2023-01-21T16:54:25.817Z,7.48
2023-01-21T16:56:59.016Z,7.43
2023-01-21T16:59:29.857Z,7.46
2023-01-21T17:01:58.871Z,7.25
2023-01-21T17:04:25.575Z,7.35
2023-01-21T17:06:54.094Z,7.19
2023-01-21T17:09:26.766Z,7.16
2023-01-21T17:11:55.239Z,7.29
2023-01-21T17:14:26.146Z,7.20
2023-01-21T17:16:56.665Z,7.04
2023-01-21T17:19:38.346Z,6.97
2023-01-21T17:22:26.994Z,7.25
2023-01-21T17:25:12.727Z,7.18
2023-01-21T17:27:44.392Z,6.89
2023-01-21T17:30:19.639Z,6.92
2023-01-21T17:32:55.968Z,6.72
2023-01-21T17:35:25.287Z,6.67
2023-01-21T17:38:02.543Z,7.05
2023-01-21T17:40:42.208Z,7.22
2023-01-21T17:43:22.697Z,7.07
2023-01-21T17:45:51.564Z,7.12
2023-01-21T17:48:23.969Z,7.12
2023-01-21T17:50:52.869Z,7.29
2023-01-21T17:53:27.063Z,7.12
2023-01-21T17:56:05.592Z,7.20
2023-01-21T17:58:32.033Z,7.32
2023-01-21T18:01:01.888Z,7.36
2023-01-21T18:03:28.503Z,7.44
2023-01-21T18:05:55.415Z,7.46
2023-01-21T18:08:21.900Z,7.25
2023-01-21T18:10:48.676Z,7.30
2023-01-21T18:13:20.593Z,7.25
2023-01-21T18:15:51.415Z,7.45
2023-01-21T18:18:21.801Z,7.52
2023-01-21T18:20:48.980Z,7.63
2023-01-21T18:23:17.953Z,7.78
2023-01-21T18:25:52.213Z,7.76
2023-01-21T18:28:24.212Z,7.36
2023-01-21T18:30:51.905Z,7.63
2023-01-21T18:33:18.956Z,7.57
2023-01-21T18:35:48.331Z,7.57
2023-01-21T18:38:27.342Z,7.70
2023-01-21T18:40:55.053Z,7.43
2023-01-21T18:43:22.367Z,7.34
2023-01-21T18:45:49.055Z,7.77
2023-01-21T18:48:16.954Z,7.57
2023-01-21T18:50:43.547Z,7.45
2023-01-21T18:53:12.526Z,6.93
2023-01-21T18:55:44.723Z,6.86
2023-01-21T18:58:14.165Z,6.49
2023-01-21T19:00:41.833Z,5.84
2023-01-21T19:03:11.878Z,5.75
2023-01-21T19:05:39.935Z,6.01
2023-01-21T19:08:18.024Z,6.00
2023-01-21T19:10:44.619Z,6.18
2023-01-21T19:13:14.055Z,6.42
2023-01-21T19:15:41.763Z,6.67
2023-01-21T19:18:12.645Z,6.33
2023-01-21T19:20:42.472Z,6.32
2023-01-21T19:23:17.277Z,6.02
2023-01-21T19:25:51.295Z,6.33
2023-01-21T19:28:18.567Z,6.21
2023-01-21T19:30:46.385Z,6.05
2023-01-21T19:33:13.199Z,6.21
2023-01-21T19:35:43.670Z,6.32
2023-01-21T19:38:16.240Z,6.18
2023-01-21T19:40:42.831Z,6.34
2023-01-21T19:43:17.958Z,6.16
2023-01-21T19:45:45.023Z,6.59
2023-01-21T19:48:13.227Z,6.45
2023-01-21T19:50:40.559Z,6.38
2023-01-21T19:53:09.660Z,6.60
2023-01-21T19:55:38.857Z,6.35
2023-01-21T19:58:15.619Z,6.21
2023-01-21T20:00:42.207Z,6.58
2023-01-21T20:03:12.597Z,6.47
2023-01-21T20:05:39.749Z,6.35
2023-01-21T20:08:11.176Z,6.21
2023-01-21T20:10:37.698Z,6.07
2023-01-21T20:13:06.184Z,5.85
2023-01-21T20:15:37.295Z,5.93
2023-01-21T20:18:04.873Z,5.71
2023-01-21T20:20:32.631Z,6.25
2023-01-21T20:23:00.437Z,5.99
2023-01-21T20:25:38.324Z,6.13
2023-01-21T20:28:15.662Z,6.52
2023-01-21T20:30:42.219Z,6.16
2023-01-21T20:33:11.210Z,5.82
2023-01-21T20:35:37.841Z,6.31
2023-01-21T20:38:10.132Z,6.00
2023-01-21T20:40:36.917Z,6.14
2023-01-21T20:43:03.543Z,6.59
2023-01-21T20:45:34.163Z,6.75
2023-01-21T20:48:03.005Z,7.08
2023-01-21T20:50:33.562Z,6.79
2023-01-21T20:53:00.087Z,7.07
2023-01-21T20:55:27.816Z,6.78
2023-01-21T20:57:54.947Z,6.68
2023-01-21T21:00:28.222Z,6.86
2023-01-21T21:02:55.743Z,6.47
2023-01-21T21:05:22.507Z,6.27
2023-01-21T21:07:49.372Z,6.32
2023-01-21T21:10:19.172Z,6.23
2023-01-21T21:12:46.136Z,6.05
2023-01-21T21:15:12.905Z,6.44
2023-01-21T21:17:39.443Z,6.35
2023-01-21T21:20:07.054Z,6.24
2023-01-21T21:22:33.587Z,6.45
2023-01-21T21:25:00.107Z,6.26
2023-01-21T21:27:26.634Z,6.44
2023-01-21T21:29:55.947Z,6.41
2023-01-21T21:32:22.484Z,6.45
2023-01-21T21:34:50.827Z,6.46
2023-01-21T21:37:17.348Z,6.30
2023-01-21T21:39:43.845Z,6.46
2023-01-21T21:42:30.808Z,6.47
2023-01-21T21:44:57.312Z,6.57
2023-01-21T21:47:42.705Z,6.67
2023-01-21T21:50:09.439Z,6.96
2023-01-21T21:52:35.955Z,6.79
2023-01-21T21:55:02.522Z,6.64
2023-01-21T21:57:29.034Z,6.64
2023-01-21T21:59:55.525Z,6.65
2023-01-21T22:02:22.500Z,6.25
2023-01-21T22:04:49.174Z,6.29
2023-01-21T22:07:15.654Z,5.95
2023-01-21T22:09:42.332Z,5.88
2023-01-21T22:12:08.831Z,5.90
2023-01-21T22:14:35.363Z,5.98
2023-01-21T22:17:02.043Z,6.03
2023-01-21T22:19:28.934Z,5.99
2023-01-21T22:21:55.453Z,6.66
2023-01-21T22:24:22.433Z,6.39
2023-01-21T22:26:48.923Z,6.41
2023-01-21T22:29:15.493Z,6.37
2023-01-21T22:31:42.184Z,6.02
2023-01-21T22:34:09.353Z,6.31
2023-01-21T22:36:36.344Z,6.03
2023-01-21T22:39:03.445Z,6.20
2023-01-21T22:41:30.624Z,6.09
2023-01-21T22:43:57.187Z,5.85
2023-01-21T22:46:26.728Z,5.99
2023-01-21T22:48:54.345Z,5.92
2023-01-21T22:51:22.816Z,6.29
2023-01-21T22:53:50.171Z,6.54
2023-01-21T22:56:19.194Z,6.45
2023-01-21T22:58:45.870Z,6.40
2023-01-21T23:01:27.180Z,6.32
2023-01-21T23:03:54.550Z,6.22
2023-01-21T23:06:21.263Z,6.11
2023-01-21T23:08:47.850Z,5.99
2023-01-21T23:11:15.806Z,5.79
2023-01-21T23:13:42.447Z,6.10
2023-01-21T23:16:13.251Z,5.74
2023-01-21T23:18:40.430Z,6.10
2023-01-21T23:21:09.113Z,6.33
2023-01-21T23:23:37.707Z,6.27
2023-01-21T23:26:07.094Z,6.07
2023-01-21T23:28:34.805Z,6.52
2023-01-21T23:31:19.303Z,5.77
2023-01-21T23:33:52.215Z,6.54
2023-01-21T23:36:19.549Z,6.52
2023-01-21T23:38:46.093Z,6.54
2023-01-21T23:41:16.685Z,6.19
2023-01-21T23:43:43.375Z,6.32
2023-01-21T23:46:16.258Z,6.38
2023-01-21T23:48:42.872Z,6.68
2023-01-21T23:51:13.444Z,6.43
2023-01-21T23:53:40.008Z,6.83
2023-01-21T23:56:10.605Z,6.50
2023-01-21T23:58:37.113Z,6.41
